createdAt,value
2022-08-26T00:02:34.773Z,90.73
2022-08-26T00:09:57.454Z,91.26
2022-08-26T00:12:35.932Z,90.94
2022-08-26T00:15:58.789Z,90.99
2022-08-26T00:18:38.836Z,90.97
2022-08-26T00:22:02.984Z,91.38
2022-08-26T00:24:41.417Z,91.39
2022-08-26T00:28:10.297Z,91.24
2022-08-26T00:30:51.589Z,91.20
2022-08-26T00:38:58.638Z,91.56
2022-08-26T00:41:31.563Z,91.64
2022-08-26T00:44:04.080Z,91.50
2022-08-26T00:51:10.139Z,91.87
2022-08-26T01:02:30.262Z,91.79
2022-08-26T01:05:12.232Z,91.84
2022-08-26T01:48:39.175Z,92.94
2022-08-26T01:55:34.547Z,93.15
2022-08-26T02:03:23.312Z,93.31
2022-08-26T02:05:57.743Z,93.48
2022-08-26T02:09:21.891Z,93.46
2022-08-26T02:15:56.527Z,93.66
2022-08-26T02:18:31.556Z,93.70
2022-08-26T02:29:52.175Z,94.07
2022-08-26T02:33:17.517Z,94.24
2022-08-26T02:35:51.331Z,94.09
2022-08-26T02:38:23.564Z,94.07
2022-08-26T02:45:47.217Z,94.08
2022-08-26T02:48:25.903Z,93.90
2022-08-26T02:55:50.084Z,94.07
2022-08-26T02:58:22.967Z,93.97
2022-08-26T03:01:02.136Z,94.17
2022-08-26T03:04:57.520Z,93.93
2022-08-26T03:08:36.346Z,94.09
2022-08-26T03:11:11.057Z,93.99
2022-08-26T03:13:45.092Z,94.04
2022-08-26T03:16:23.572Z,94.18
2022-08-26T03:18:55.876Z,93.85
2022-08-26T03:21:35.512Z,93.82
2022-08-26T03:24:11.113Z,93.92
2022-08-26T03:27:47.844Z,93.90
2022-08-26T03:34:23.705Z,93.86
2022-08-26T03:37:30.271Z,93.61
2022-08-26T03:40:50.467Z,93.48
2022-08-26T03:48:15.663Z,93.73
2022-08-26T03:55:24.886Z,93.47
2022-08-26T03:58:46.578Z,93.65
2022-08-26T04:01:21.656Z,94.16
2022-08-26T04:04:42.564Z,94.30
2022-08-26T04:07:21.820Z,94.22
2022-08-26T04:14:45.794Z,94.08
2022-08-26T04:18:05.353Z,94.33
2022-08-26T04:20:39.266Z,94.38
2022-08-26T04:24:03.592Z,94.40
2022-08-26T04:27:25.600Z,94.69
2022-08-26T04:30:05.385Z,94.45
2022-08-26T04:42:03.690Z,94.91
2022-08-26T04:44:42.799Z,95.04
2022-08-26T04:47:15.205Z,95.24
2022-08-26T04:53:57.509Z,95.66
2022-08-26T04:57:45.162Z,95.97
2022-08-26T05:00:34.070Z,96.07
2022-08-26T05:03:07.682Z,96.02
2022-08-26T05:06:43.726Z,96.51
2022-08-26T05:09:18.552Z,96.46
2022-08-26T05:11:52.057Z,96.64
2022-08-26T05:14:24.982Z,96.68
2022-08-26T05:16:57.468Z,97.03
2022-08-26T05:19:29.762Z,97.28
2022-08-26T05:22:02.359Z,97.42
2022-08-26T05:24:36.395Z,97.62
2022-08-26T05:27:11.637Z,97.87
2022-08-26T05:29:44.395Z,98.05
2022-08-26T05:32:17.063Z,98.56
2022-08-26T05:34:49.341Z,98.69
2022-08-26T05:37:25.071Z,98.86
2022-08-26T05:39:57.615Z,99.18
2022-08-26T05:42:30.286Z,99.06
2022-08-26T05:45:03.279Z,99.15
2022-08-26T05:47:35.644Z,99.37
2022-08-26T05:50:09.492Z,99.37
2022-08-26T05:52:41.672Z,99.64
2022-08-26T05:55:14.026Z,99.84
2022-08-26T05:57:46.593Z,99.84
2022-08-26T06:00:21.061Z,99.90
2022-08-26T06:02:53.501Z,99.88
2022-08-26T06:05:26.765Z,99.86
2022-08-26T06:08:14.237Z,99.60
2022-08-26T06:10:52.637Z,99.03
2022-08-26T06:13:26.864Z,98.42
2022-08-26T06:16:00.347Z,98.74
2022-08-26T06:18:36.521Z,98.21
2022-08-26T06:21:18.271Z,98.08
2022-08-26T06:24:10.309Z,97.43
2022-08-26T06:26:44.051Z,98.46
2022-08-26T06:29:24.290Z,98.08
2022-08-26T06:31:58.208Z,96.93
2022-08-26T06:34:31.031Z,95.95
2022-08-26T06:37:06.318Z,95.86
2022-08-26T06:39:40.255Z,96.10
2022-08-26T06:42:13.726Z,96.40
2022-08-26T06:44:47.533Z,95.17
2022-08-26T06:47:20.492Z,95.39
2022-08-26T06:49:53.132Z,94.93
2022-08-26T06:52:27.809Z,94.52
2022-08-26T06:55:01.476Z,92.69
2022-08-26T06:57:37.653Z,92.23
2022-08-26T07:00:15.461Z,92.05
2022-08-26T07:02:48.066Z,91.86
2022-08-26T07:05:21.117Z,92.12
2022-08-26T07:07:53.690Z,90.71
2022-08-26T07:10:26.641Z,89.64
2022-08-26T07:12:58.867Z,90.22
2022-08-26T07:15:31.662Z,89.69
2022-08-26T07:18:09.218Z,89.00
2022-08-26T07:20:43.000Z,89.43
2022-08-26T07:23:24.179Z,88.61
2022-08-26T07:25:57.577Z,88.58
2022-08-26T07:28:33.426Z,88.19
2022-08-26T07:31:09.821Z,88.13
2022-08-26T07:33:48.603Z,87.15
2022-08-26T07:36:23.157Z,86.21
2022-08-26T07:38:56.424Z,86.27
2022-08-26T07:41:32.316Z,85.78
2022-08-26T07:44:05.335Z,84.30
2022-08-26T07:46:38.169Z,84.30
2022-08-26T07:49:11.637Z,82.57
2022-08-26T07:51:46.776Z,82.35
2022-08-26T07:54:19.892Z,80.97
2022-08-26T07:56:52.675Z,81.03
2022-08-26T07:59:27.853Z,79.88
2022-08-26T08:02:01.452Z,79.97
2022-08-26T08:04:34.646Z,78.82
2022-08-26T08:07:11.610Z,78.53
2022-08-26T08:09:50.427Z,76.67
2022-08-26T08:12:23.292Z,75.36
2022-08-26T08:14:58.627Z,74.95
2022-08-26T08:17:34.585Z,73.88
2022-08-26T08:20:09.381Z,73.75
2022-08-26T08:22:42.540Z,73.54
2022-08-26T08:25:20.045Z,72.14
2022-08-26T08:27:52.439Z,71.91
2022-08-26T08:30:25.592Z,72.26
2022-08-26T08:32:58.695Z,72.66
2022-08-26T08:35:34.688Z,71.03
2022-08-26T08:38:08.203Z,66.48
2022-08-26T08:41:50.682Z,68.13
2022-08-26T08:47:12.405Z,65.09
2022-08-26T08:49:49.692Z,65.28
2022-08-26T08:52:30.466Z,64.38
2022-08-26T08:55:04.328Z,65.46
2022-08-26T08:58:02.231Z,63.80
2022-08-26T09:00:47.774Z,63.37
2022-08-26T09:03:38.009Z,63.68
2022-08-26T09:06:17.469Z,62.94
2022-08-26T09:08:52.001Z,61.42
2022-08-26T09:11:24.377Z,61.48
2022-08-26T09:13:57.855Z,61.29
2022-08-26T09:16:44.125Z,59.91
2022-08-26T09:19:28.761Z,59.66
2022-08-26T09:22:08.722Z,59.04
2022-08-26T09:24:48.456Z,59.24
2022-08-26T09:27:40.020Z,57.81
2022-08-26T09:30:19.995Z,58.25
2022-08-26T09:33:10.837Z,58.98
2022-08-26T09:35:48.675Z,57.89
2022-08-26T09:38:42.184Z,57.30
2022-08-26T09:41:33.354Z,57.28
2022-08-26T09:44:17.856Z,57.58
2022-08-26T09:46:59.347Z,56.55
2022-08-26T09:49:36.584Z,54.56
2022-08-26T09:52:14.741Z,54.14
2022-08-26T09:54:59.566Z,53.98
2022-08-26T09:57:34.376Z,52.47
2022-08-26T10:00:29.143Z,54.32
2022-08-26T10:03:02.794Z,53.11
2022-08-26T10:05:47.822Z,53.12
2022-08-26T10:08:31.043Z,53.13
2022-08-26T10:11:29.490Z,53.60
2022-08-26T10:14:08.972Z,53.44
2022-08-26T10:16:48.510Z,53.36
2022-08-26T10:19:29.163Z,52.95
2022-08-26T10:22:20.246Z,53.16
2022-08-26T10:24:57.696Z,52.90
2022-08-26T10:27:37.846Z,52.13
2022-08-26T10:30:16.518Z,50.75
2022-08-26T10:32:54.495Z,49.93
2022-08-26T10:35:27.632Z,51.61
2022-08-26T10:38:05.681Z,51.66
2022-08-26T10:40:49.081Z,51.85
2022-08-26T10:43:26.033Z,49.48
2022-08-26T10:46:04.585Z,50.83
2022-08-26T10:48:44.855Z,50.94
2022-08-26T10:51:21.161Z,50.99
2022-08-26T10:54:04.958Z,49.08
2022-08-26T10:56:47.497Z,49.01
2022-08-26T10:59:31.838Z,49.51
2022-08-26T11:02:13.873Z,48.30
2022-08-26T11:04:52.456Z,48.57
2022-08-26T11:07:41.881Z,47.70
2022-08-26T11:10:58.891Z,48.45
2022-08-26T11:14:04.143Z,48.48
2022-08-26T11:16:43.367Z,47.37
2022-08-26T11:20:09.524Z,47.71
2022-08-26T11:22:47.839Z,47.58
2022-08-26T11:25:22.839Z,47.02
2022-08-26T11:28:00.904Z,48.15
2022-08-26T11:30:57.895Z,48.10
2022-08-26T11:34:01.465Z,48.08
2022-08-26T11:36:42.839Z,47.83
2022-08-26T11:39:29.451Z,47.34
2022-08-26T11:42:15.402Z,48.19
2022-08-26T11:44:53.175Z,47.90
2022-08-26T11:47:33.042Z,47.87
2022-08-26T11:50:23.359Z,45.88
2022-08-26T11:53:06.362Z,46.48
2022-08-26T11:55:45.370Z,46.55
2022-08-26T11:58:20.713Z,47.00
2022-08-26T12:01:01.680Z,46.31
2022-08-26T12:03:42.904Z,47.15
2022-08-26T12:06:24.128Z,46.85
2022-08-26T12:09:00.314Z,46.41
2022-08-26T12:11:34.629Z,46.12
2022-08-26T12:14:09.830Z,46.42
2022-08-26T12:16:43.505Z,46.39
2022-08-26T12:19:32.709Z,46.54
2022-08-26T12:22:08.644Z,46.53
2022-08-26T12:24:48.640Z,45.52
2022-08-26T12:27:25.487Z,43.32
2022-08-26T12:30:14.194Z,44.10
2022-08-26T12:32:50.984Z,45.10
2022-08-26T12:35:32.139Z,45.33
2022-08-26T12:38:05.209Z,43.82
2022-08-26T12:40:44.621Z,44.29
2022-08-26T12:43:41.510Z,43.05
2022-08-26T12:46:17.861Z,43.54
2022-08-26T12:48:53.426Z,43.15
2022-08-26T12:51:31.251Z,43.54
2022-08-26T12:54:07.305Z,43.07
2022-08-26T12:56:40.952Z,41.67
2022-08-26T12:59:25.198Z,41.72
2022-08-26T13:01:57.695Z,41.01
2022-08-26T13:04:39.111Z,41.73
2022-08-26T13:07:26.675Z,42.08
2022-08-26T13:10:01.069Z,40.89
2022-08-26T13:16:47.522Z,40.09
2022-08-26T13:24:18.067Z,40.11
2022-08-26T13:32:46.233Z,39.41
2022-08-26T13:35:25.349Z,38.80
2022-08-26T13:38:33.438Z,39.60
2022-08-26T13:41:06.636Z,39.11
2022-08-26T13:48:22.861Z,39.95
2022-08-26T13:51:20.489Z,39.43
2022-08-26T13:53:53.461Z,39.82
2022-08-26T13:56:29.728Z,40.04
2022-08-26T13:59:03.331Z,39.77
2022-08-26T14:01:38.230Z,39.57
2022-08-26T14:04:10.650Z,40.04
2022-08-26T14:06:42.894Z,38.42
2022-08-26T14:09:15.261Z,38.96
2022-08-26T14:11:53.930Z,38.81
2022-08-26T14:14:26.968Z,39.30
2022-08-26T14:17:00.557Z,38.68
2022-08-26T14:19:33.510Z,40.00
2022-08-26T14:22:06.852Z,39.57
2022-08-26T14:24:39.217Z,39.05
2022-08-26T14:27:11.399Z,39.45
2022-08-26T14:29:43.861Z,38.75
2022-08-26T14:32:25.395Z,39.25
2022-08-26T14:34:58.961Z,39.79
2022-08-26T14:37:31.622Z,39.43
2022-08-26T14:40:06.016Z,39.41
2022-08-26T14:42:41.344Z,38.24
2022-08-26T14:45:17.944Z,39.10
2022-08-26T14:47:51.841Z,39.69
2022-08-26T14:50:26.643Z,40.32
2022-08-26T14:53:16.785Z,39.62
2022-08-26T14:55:50.565Z,39.78
2022-08-26T14:58:25.001Z,39.58
2022-08-26T15:01:21.081Z,39.48
2022-08-26T15:03:53.813Z,39.12
2022-08-26T15:06:31.880Z,39.36
2022-08-26T15:09:06.510Z,40.14
2022-08-26T15:11:39.034Z,40.76
2022-08-26T15:14:18.876Z,41.27
2022-08-26T15:16:55.918Z,39.58
2022-08-26T15:19:29.340Z,40.13
2022-08-26T15:22:01.603Z,39.47
2022-08-26T15:24:33.801Z,39.84
2022-08-26T15:27:06.428Z,39.56
2022-08-26T15:29:41.609Z,39.78
2022-08-26T15:32:16.312Z,39.55
2022-08-26T15:34:50.028Z,39.95
2022-08-26T15:37:22.219Z,40.03
2022-08-26T15:39:56.770Z,40.03
2022-08-26T15:42:29.401Z,39.92
2022-08-26T15:45:01.641Z,40.31
2022-08-26T15:47:38.114Z,40.18
2022-08-26T15:50:26.375Z,39.57
2022-08-26T15:52:59.778Z,40.58
2022-08-26T15:55:31.975Z,40.17
2022-08-26T15:58:38.083Z,40.29
2022-08-26T16:01:10.647Z,40.47
2022-08-26T16:03:45.355Z,40.85
2022-08-26T16:06:22.507Z,40.92
2022-08-26T16:08:55.653Z,41.68
2022-08-26T16:11:31.919Z,41.46
2022-08-26T16:14:04.696Z,42.00
2022-08-26T16:16:43.364Z,42.16
2022-08-26T16:19:15.887Z,42.88
2022-08-26T16:21:51.485Z,43.13
2022-08-26T16:24:29.742Z,43.82
2022-08-26T16:27:03.520Z,44.12
2022-08-26T16:29:35.801Z,44.48
2022-08-26T16:32:08.835Z,45.26
2022-08-26T16:34:46.967Z,46.21
2022-08-26T16:37:29.128Z,46.68
2022-08-26T16:40:01.770Z,47.41
2022-08-26T16:42:34.484Z,47.60
2022-08-26T16:45:07.714Z,48.06
2022-08-26T16:47:40.046Z,48.57
2022-08-26T16:50:13.221Z,48.95
2022-08-26T16:52:51.571Z,49.55
2022-08-26T16:55:28.303Z,50.56
2022-08-26T16:58:00.643Z,51.51
2022-08-26T17:05:27.040Z,53.02
2022-08-26T17:08:07.240Z,53.22
2022-08-26T17:10:38.509Z,53.90
2022-08-26T17:13:35.181Z,54.62
2022-08-26T17:16:10.811Z,54.86
2022-08-26T17:19:32.778Z,55.57
2022-08-26T17:22:20.980Z,55.96
2022-08-26T17:24:53.544Z,56.23
2022-08-26T17:27:31.904Z,56.43
2022-08-26T17:30:07.162Z,56.83
2022-08-26T17:33:39.215Z,57.42
2022-08-26T17:36:53.402Z,57.79
2022-08-26T17:39:26.673Z,58.23
2022-08-26T17:43:12.424Z,58.38
2022-08-26T17:45:45.443Z,59.35
2022-08-26T17:53:08.061Z,60.49
2022-08-26T17:55:45.223Z,60.72
2022-08-26T18:03:08.781Z,61.85
2022-08-26T18:10:14.070Z,62.52
2022-08-26T18:13:36.389Z,62.76
2022-08-26T18:21:01.520Z,63.72
2022-08-26T18:24:41.634Z,64.17
2022-08-26T18:28:26.679Z,64.99
2022-08-26T18:30:59.024Z,65.41
2022-08-26T18:33:31.472Z,65.47
2022-08-26T18:36:05.874Z,65.55
2022-08-26T18:39:03.523Z,66.21
2022-08-26T18:45:20.850Z,66.71
2022-08-26T18:48:51.013Z,66.85
2022-08-26T18:51:25.305Z,67.31
2022-08-26T18:53:58.609Z,67.56
2022-08-26T18:56:32.766Z,67.77
2022-08-26T18:59:07.908Z,67.98
2022-08-26T19:02:39.814Z,68.16
2022-08-26T19:05:53.744Z,68.17
2022-08-26T19:08:26.336Z,68.63
2022-08-26T19:11:00.360Z,68.56
2022-08-26T19:14:28.135Z,69.08
2022-08-26T19:17:01.609Z,69.47
2022-08-26T19:19:34.458Z,69.70
2022-08-26T19:22:07.609Z,69.88
2022-08-26T19:24:46.825Z,69.91
2022-08-26T19:27:19.316Z,70.35
2022-08-26T19:29:51.523Z,70.56
2022-08-26T19:32:24.475Z,70.90
2022-08-26T19:34:57.387Z,70.98
2022-08-26T19:37:57.193Z,71.15
2022-08-26T19:45:29.267Z,71.98
2022-08-26T19:52:58.141Z,72.44
2022-08-26T19:55:30.377Z,72.40
2022-08-26T19:58:03.976Z,72.68
2022-08-26T20:00:39.686Z,72.59
2022-08-26T20:03:15.827Z,73.03
2022-08-26T20:05:48.959Z,72.89
2022-08-26T20:08:22.444Z,73.00
2022-08-26T20:10:54.978Z,72.89
2022-08-26T20:13:27.174Z,73.06
2022-08-26T20:15:59.637Z,73.23
2022-08-26T20:18:49.606Z,73.35
2022-08-26T20:21:29.840Z,73.82
2022-08-26T20:24:04.245Z,73.82
2022-08-26T20:26:38.504Z,74.13
2022-08-26T20:29:12.827Z,74.41
2022-08-26T20:31:45.984Z,74.42
2022-08-26T20:34:19.679Z,74.62
2022-08-26T20:36:52.657Z,74.92
2022-08-26T20:39:25.467Z,75.29
2022-08-26T20:41:58.593Z,75.11
2022-08-26T20:44:31.952Z,75.21
2022-08-26T20:47:04.528Z,75.21
2022-08-26T20:49:37.304Z,75.39
2022-08-26T20:52:11.032Z,75.40
2022-08-26T20:54:43.508Z,75.48
2022-08-26T20:57:15.749Z,75.51
2022-08-26T20:59:47.874Z,75.76
2022-08-26T21:02:20.939Z,75.85
2022-08-26T21:04:53.702Z,75.91
2022-08-26T21:07:26.415Z,76.25
2022-08-26T21:09:58.783Z,76.62
2022-08-26T21:12:33.539Z,76.61
2022-08-26T21:15:06.267Z,76.76
2022-08-26T21:17:38.697Z,76.77
2022-08-26T21:20:11.746Z,76.68
2022-08-26T21:22:45.783Z,76.68
2022-08-26T21:25:18.062Z,76.89
2022-08-26T21:27:50.300Z,76.87
2022-08-26T21:30:23.746Z,76.90
2022-08-26T21:32:56.513Z,76.95
2022-08-26T21:35:29.014Z,77.27
2022-08-26T21:38:01.207Z,77.09
2022-08-26T21:40:33.355Z,77.13
2022-08-26T21:43:05.549Z,77.27
2022-08-26T21:45:42.174Z,77.37
2022-08-26T21:48:14.339Z,77.40
2022-08-26T21:50:46.855Z,77.67
2022-08-26T21:53:19.513Z,77.70
2022-08-26T21:55:51.834Z,77.97
2022-08-26T21:58:24.324Z,78.08
2022-08-26T22:00:56.710Z,78.21
2022-08-26T22:03:29.067Z,78.30
2022-08-26T22:06:03.551Z,78.36
2022-08-26T22:08:38.197Z,78.34
2022-08-26T22:11:10.907Z,78.63
2022-08-26T22:13:44.399Z,78.57
2022-08-26T22:16:17.382Z,78.98
2022-08-26T22:18:49.643Z,79.07
2022-08-26T22:21:24.810Z,79.14
2022-08-26T22:23:58.193Z,78.96
2022-08-26T22:26:33.944Z,79.09
2022-08-26T22:29:08.099Z,79.26
2022-08-26T22:31:40.552Z,79.38
2022-08-26T22:34:17.271Z,79.75
2022-08-26T22:36:51.246Z,79.55
2022-08-26T22:39:25.553Z,79.86
2022-08-26T22:41:58.003Z,79.80
2022-08-26T22:44:30.313Z,79.78
2022-08-26T22:47:05.570Z,79.98
2022-08-26T22:49:38.636Z,80.12
2022-08-26T22:52:10.806Z,80.08
2022-08-26T22:54:43.047Z,80.02
2022-08-26T22:57:15.194Z,80.34
2022-08-26T22:59:47.745Z,80.64
2022-08-26T23:02:19.948Z,80.74
2022-08-26T23:04:52.404Z,80.78
2022-08-26T23:07:24.869Z,80.97
2022-08-26T23:09:57.072Z,81.04
2022-08-26T23:12:29.334Z,81.11
2022-08-26T23:15:02.388Z,81.20
2022-08-26T23:17:36.762Z,81.16
2022-08-26T23:20:12.821Z,81.46
2022-08-26T23:22:45.510Z,81.49
2022-08-26T23:25:17.577Z,81.60
2022-08-26T23:27:50.334Z,81.62
2022-08-26T23:30:25.888Z,81.81
2022-08-26T23:32:59.303Z,81.97
2022-08-26T23:35:31.589Z,82.12
2022-08-26T23:38:05.831Z,82.28
2022-08-26T23:40:39.429Z,82.10
2022-08-26T23:43:12.630Z,82.45
2022-08-26T23:45:44.843Z,82.52
2022-08-26T23:48:19.855Z,82.92
2022-08-26T23:51:09.544Z,82.91
2022-08-26T23:53:42.493Z,83.00
2022-08-26T23:56:18.485Z,83.22
2022-08-26T23:58:50.889Z,83.17
